sensor_id;sensor_type;location;lat;lon;timestamp;pressure;altitude;pressure_sealevel;temperature;humidity
62402;BME280;48440;51.224;22.506;2024-03-17T00:01:01;98969.31;;;9.13;94.04
62402;BME280;48440;51.224;22.506;2024-03-17T00:03:27;98976.63;;;9.12;93.87
62402;BME280;48440;51.224;22.506;2024-03-17T00:06:00;98973.91;;;9.12;93.65
62402;BME280;48440;51.224;22.506;2024-03-17T00:08:26;98973.91;;;9.12;93.58
62402;BME280;48440;51.224;22.506;2024-03-17T00:10:55;98976.63;;;9.12;93.41
62402;BME280;48440;51.224;22.506;2024-03-17T00:13:21;98979.09;;;9.14;93.27
62402;BME280;48440;51.224;22.506;2024-03-17T00:15:48;98972.59;;;9.15;93.22
62402;BME280;48440;51.224;22.506;2024-03-17T00:18:13;98977.75;;;9.16;92.91
62402;BME280;48440;51.224;22.506;2024-03-17T00:20:39;98976.69;;;9.17;92.71
62402;BME280;48440;51.224;22.506;2024-03-17T00:23:05;98977.25;;;9.19;92.46
62402;BME280;48440;51.224;22.506;2024-03-17T00:25:35;98976.44;;;9.19;92.41
62402;BME280;48440;51.224;22.506;2024-03-17T00:28:04;98988.66;;;9.22;91.70
62402;BME280;48440;51.224;22.506;2024-03-17T00:30:30;98985.13;;;9.21;91.92
62402;BME280;48440;51.224;22.506;2024-03-17T00:32:56;98983.00;;;9.23;92.23
62402;BME280;48440;51.224;22.506;2024-03-17T00:35:23;98975.94;;;9.22;91.63
62402;BME280;48440;51.224;22.506;2024-03-17T00:37:49;98983.81;;;9.24;92.00
62402;BME280;48440;51.224;22.506;2024-03-17T00:40:15;98989.22;;;9.24;92.11
62402;BME280;48440;51.224;22.506;2024-03-17T00:42:41;98985.69;;;9.23;92.34
62402;BME280;48440;51.224;22.506;2024-03-17T00:45:07;98977.31;;;9.25;91.90
62402;BME280;48440;51.224;22.506;2024-03-17T00:47:33;98987.66;;;9.28;91.96
62402;BME280;48440;51.224;22.506;2024-03-17T00:49:58;98987.66;;;9.28;91.83
62402;BME280;48440;51.224;22.506;2024-03-17T00:52:24;98987.09;;;9.26;91.61
62402;BME280;48440;51.224;22.506;2024-03-17T00:54:49;98992.81;;;9.29;91.48
62402;BME280;48440;51.224;22.506;2024-03-17T00:57:15;98990.34;;;9.28;91.29
62402;BME280;48440;51.224;22.506;2024-03-17T00:59:43;98994.69;;;9.29;91.58
62402;BME280;48440;51.224;22.506;2024-03-17T01:02:12;98992.81;;;9.29;91.56
62402;BME280;48440;51.224;22.506;2024-03-17T01:04:41;98993.88;;;9.28;91.50
62402;BME280;48440;51.224;22.506;2024-03-17T01:07:07;98994.13;;;9.27;91.15
62402;BME280;48440;51.224;22.506;2024-03-17T01:09:32;98991.69;;;9.25;91.94
62402;BME280;48440;51.224;22.506;2024-03-17T01:11:57;98990.59;;;9.26;91.85
62402;BME280;48440;51.224;22.506;2024-03-17T01:14:23;98991.94;;;9.24;92.38
62402;BME280;48440;51.224;22.506;2024-03-17T01:16:50;98986.50;;;9.24;92.25
62402;BME280;48440;51.224;22.506;2024-03-17T01:19:16;98989.47;;;9.22;92.03
62402;BME280;48440;51.224;22.506;2024-03-17T01:21:42;98997.03;;;9.20;92.49
62402;BME280;48440;51.224;22.506;2024-03-17T01:24:07;98994.06;;;9.22;92.62
62402;BME280;48440;51.224;22.506;2024-03-17T01:26:33;98997.03;;;9.20;92.35
62402;BME280;48440;51.224;22.506;2024-03-17T01:28:58;99003.00;;;9.22;92.54
62402;BME280;48440;51.224;22.506;2024-03-17T01:31:24;99009.50;;;9.21;92.33
62402;BME280;48440;51.224;22.506;2024-03-17T01:33:50;99006.78;;;9.21;92.57
62402;BME280;48440;51.224;22.506;2024-03-17T01:36:15;99009.25;;;9.23;92.15
62402;BME280;48440;51.224;22.506;2024-03-17T01:38:41;99010.06;;;9.23;91.30
62402;BME280;48440;51.224;22.506;2024-03-17T01:41:06;99006.28;;;9.24;91.02
62402;BME280;48440;51.224;22.506;2024-03-17T01:43:32;99011.13;;;9.22;91.02
62402;BME280;48440;51.224;22.506;2024-03-17T01:45:58;99011.94;;;9.23;91.04
62402;BME280;48440;51.224;22.506;2024-03-17T01:48:24;99012.44;;;9.19;91.40
62402;BME280;48440;51.224;22.506;2024-03-17T01:50:52;99012.69;;;9.18;91.26
62402;BME280;48440;51.224;22.506;2024-03-17T01:53:18;99015.66;;;9.16;91.32
62402;BME280;48440;51.224;22.506;2024-03-17T01:55:46;99035.69;;;9.15;91.73
62402;BME280;48440;51.224;22.506;2024-03-17T01:58:12;99035.13;;;9.13;90.50
62402;BME280;48440;51.224;22.506;2024-03-17T02:00:39;99045.25;;;9.01;86.02
62402;BME280;48440;51.224;22.506;2024-03-17T02:03:05;99055.38;;;8.89;84.43
62402;BME280;48440;51.224;22.506;2024-03-17T02:05:32;99069.84;;;8.78;82.52
62402;BME280;48440;51.224;22.506;2024-03-17T02:07:59;99064.50;;;8.66;82.29
62402;BME280;48440;51.224;22.506;2024-03-17T02:10:25;99064.38;;;8.56;82.25
62402;BME280;48440;51.224;22.506;2024-03-17T02:12:50;99080.75;;;8.49;81.36
62402;BME280;48440;51.224;22.506;2024-03-17T02:15:16;99088.22;;;8.42;79.84
62402;BME280;48440;51.224;22.506;2024-03-17T02:17:41;99085.81;;;8.29;79.45
62402;BME280;48440;51.224;22.506;2024-03-17T02:20:07;99105.72;;;8.23;78.38
62402;BME280;48440;51.224;22.506;2024-03-17T02:22:34;99111.50;;;8.15;78.08
62402;BME280;48440;51.224;22.506;2024-03-17T02:25:01;99108.63;;;8.05;76.26
62402;BME280;48440;51.224;22.506;2024-03-17T02:27:27;99101.16;;;7.95;74.42
62402;BME280;48440;51.224;22.506;2024-03-17T02:29:52;99107.53;;;7.89;72.57
62402;BME280;48440;51.224;22.506;2024-03-17T02:32:18;99105.19;;;7.81;70.58
62402;BME280;48440;51.224;22.506;2024-03-17T02:34:46;99112.47;;;7.80;69.67
62402;BME280;48440;51.224;22.506;2024-03-17T02:37:12;99119.34;;;7.71;69.81
62402;BME280;48440;51.224;22.506;2024-03-17T02:39:37;99126.38;;;7.72;70.28
62402;BME280;48440;51.224;22.506;2024-03-17T02:42:08;99139.31;;;7.70;70.68
62402;BME280;48440;51.224;22.506;2024-03-17T02:44:35;99140.94;;;7.71;71.72
62402;BME280;48440;51.224;22.506;2024-03-17T02:47:02;99139.06;;;7.72;72.68
62402;BME280;48440;51.224;22.506;2024-03-17T02:49:30;99138.50;;;7.70;74.13
62402;BME280;48440;51.224;22.506;2024-03-17T02:52:05;99136.84;;;7.69;74.55
62402;BME280;48440;51.224;22.506;2024-03-17T02:54:31;99135.44;;;7.66;75.53
62402;BME280;48440;51.224;22.506;2024-03-17T02:56:57;99137.09;;;7.67;75.90
62402;BME280;48440;51.224;22.506;2024-03-17T02:59:23;99141.91;;;7.65;75.85
62402;BME280;48440;51.224;22.506;2024-03-17T03:01:48;99146.38;;;7.60;75.53
62402;BME280;48440;51.224;22.506;2024-03-17T03:04:14;99149.53;;;7.57;75.66
62402;BME280;48440;51.224;22.506;2024-03-17T03:06:41;99159.06;;;7.59;75.63
62402;BME280;48440;51.224;22.506;2024-03-17T03:09:06;99165.75;;;7.57;73.44
62402;BME280;48440;51.224;22.506;2024-03-17T03:11:38;99162.16;;;7.51;73.32
62402;BME280;48440;51.224;22.506;2024-03-17T03:14:04;99160.16;;;7.46;71.67
62402;BME280;48440;51.224;22.506;2024-03-17T03:16:30;99164.72;;;7.46;71.29
62402;BME280;48440;51.224;22.506;2024-03-17T03:18:55;99164.63;;;7.41;71.31
62402;BME280;48440;51.224;22.506;2024-03-17T03:21:21;99173.78;;;7.40;71.16
62402;BME280;48440;51.224;22.506;2024-03-17T03:23:47;99177.66;;;7.44;71.32
62402;BME280;48440;51.224;22.506;2024-03-17T03:26:13;99182.22;;;7.43;71.14
62402;BME280;48440;51.224;22.506;2024-03-17T03:28:39;99184.34;;;7.41;71.73
62402;BME280;48440;51.224;22.506;2024-03-17T03:31:04;99183.16;;;7.37;72.14
62402;BME280;48440;51.224;22.506;2024-03-17T03:33:30;99183.63;;;7.34;71.33
62402;BME280;48440;51.224;22.506;2024-03-17T03:35:55;99186.22;;;7.29;71.31
62402;BME280;48440;51.224;22.506;2024-03-17T03:38:21;99197.25;;;7.28;72.01
62402;BME280;48440;51.224;22.506;2024-03-17T03:40:47;99190.78;;;7.29;71.53
62402;BME280;48440;51.224;22.506;2024-03-17T03:43:13;99189.97;;;7.28;69.93
62402;BME280;48440;51.224;22.506;2024-03-17T03:45:39;99197.97;;;7.23;69.14
62402;BME280;48440;51.224;22.506;2024-03-17T03:48:06;99203.63;;;7.22;69.22
62402;BME280;48440;51.224;22.506;2024-03-17T03:50:34;99197.50;;;7.14;68.91
62402;BME280;48440;51.224;22.506;2024-03-17T03:52:59;99197.03;;;7.18;69.34
62402;BME280;48440;51.224;22.506;2024-03-17T03:55:25;99198.56;;;7.13;68.43
62402;BME280;48440;51.224;22.506;2024-03-17T03:57:50;99203.13;;;7.13;68.62
62402;BME280;48440;51.224;22.506;2024-03-17T04:00:20;99202.06;;;7.14;69.22
62402;BME280;48440;51.224;22.506;2024-03-17T04:02:50;99200.66;;;7.11;68.84
62402;BME280;48440;51.224;22.506;2024-03-17T04:05:17;99219.31;;;7.13;68.99
62402;BME280;48440;51.224;22.506;2024-03-17T04:07:46;99223.09;;;7.12;69.40
62402;BME280;48440;51.224;22.506;2024-03-17T04:10:15;99222.94;;;7.07;69.51
62402;BME280;48440;51.224;22.506;2024-03-17T04:12:43;99219.66;;;7.05;69.01
62402;BME280;48440;51.224;22.506;2024-03-17T04:15:09;99216.16;;;7.04;69.03
62402;BME280;48440;51.224;22.506;2024-03-17T04:17:37;99216.63;;;7.01;69.52
62402;BME280;48440;51.224;22.506;2024-03-17T04:20:04;99220.94;;;7.02;69.83
62402;BME280;48440;51.224;22.506;2024-03-17T04:22:34;99218.03;;;7.04;69.43
62402;BME280;48440;51.224;22.506;2024-03-17T04:24:59;99226.25;;;6.97;68.92
62402;BME280;48440;51.224;22.506;2024-03-17T04:27:28;99221.09;;;6.96;68.96
62402;BME280;48440;51.224;22.506;2024-03-17T04:29:54;99212.63;;;6.92;69.27
62402;BME280;48440;51.224;22.506;2024-03-17T04:32:21;99214.50;;;6.92;69.49
62402;BME280;48440;51.224;22.506;2024-03-17T04:34:46;99217.44;;;6.90;69.88
62402;BME280;48440;51.224;22.506;2024-03-17T04:37:12;99224.25;;;6.93;70.09
62402;BME280;48440;51.224;22.506;2024-03-17T04:39:39;99236.44;;;6.95;70.27
62402;BME280;48440;51.224;22.506;2024-03-17T04:42:08;99242.53;;;6.91;69.37
62402;BME280;48440;51.224;22.506;2024-03-17T04:44:34;99234.13;;;6.99;69.74
62402;BME280;48440;51.224;22.506;2024-03-17T04:46:59;99240.56;;;6.98;69.44
62402;BME280;48440;51.224;22.506;2024-03-17T04:49:24;99251.13;;;6.99;69.26
62402;BME280;48440;51.224;22.506;2024-03-17T04:51:50;99226.03;;;6.99;67.75
62402;BME280;48440;51.224;22.506;2024-03-17T04:54:15;99231.28;;;6.94;66.66
62402;BME280;48440;51.224;22.506;2024-03-17T04:56:41;99245.94;;;6.86;66.61
62402;BME280;48440;51.224;22.506;2024-03-17T04:59:07;99262.56;;;6.83;66.23
62402;BME280;48440;51.224;22.506;2024-03-17T05:01:32;99268.56;;;6.85;66.00
62402;BME280;48440;51.224;22.506;2024-03-17T05:04:02;99263.63;;;6.82;66.04
62402;BME280;48440;51.224;22.506;2024-03-17T05:06:28;99262.94;;;6.75;65.92
62402;BME280;48440;51.224;22.506;2024-03-17T05:08:53;99270.53;;;6.78;66.88
62402;BME280;48440;51.224;22.506;2024-03-17T05:11:19;99276.97;;;6.77;66.64
62402;BME280;48440;51.224;22.506;2024-03-17T05:13:45;99275.00;;;6.72;67.50
62402;BME280;48440;51.224;22.506;2024-03-17T05:16:10;99274.88;;;6.79;67.92
62402;BME280;48440;51.224;22.506;2024-03-17T05:18:36;99275.69;;;6.79;67.82
62402;BME280;48440;51.224;22.506;2024-03-17T05:21:05;99278.63;;;6.78;68.04
62402;BME280;48440;51.224;22.506;2024-03-17T05:23:33;99291.50;;;6.76;68.08
62402;BME280;48440;51.224;22.506;2024-03-17T05:25:59;99299.84;;;6.74;68.01
62402;BME280;48440;51.224;22.506;2024-03-17T05:28:25;99294.22;;;6.76;68.28
62402;BME280;48440;51.224;22.506;2024-03-17T05:30:51;99290.22;;;6.78;68.62
62402;BME280;48440;51.224;22.506;2024-03-17T05:33:18;99287.06;;;6.81;68.68
62402;BME280;48440;51.224;22.506;2024-03-17T05:35:51;99293.97;;;6.77;68.27
62402;BME280;48440;51.224;22.506;2024-03-17T05:38:27;99292.25;;;6.83;68.03
62402;BME280;48440;51.224;22.506;2024-03-17T05:40:57;99298.47;;;6.84;67.71
62402;BME280;48440;51.224;22.506;2024-03-17T05:43:24;99294.94;;;6.83;67.24
62402;BME280;48440;51.224;22.506;2024-03-17T05:45:53;99305.28;;;6.86;67.79
62402;BME280;48440;51.224;22.506;2024-03-17T05:48:19;99309.53;;;6.94;66.89
62402;BME280;48440;51.224;22.506;2024-03-17T05:50:46;99315.16;;;6.92;67.01
62402;BME280;48440;51.224;22.506;2024-03-17T05:53:11;99309.16;;;6.90;65.71
62402;BME280;48440;51.224;22.506;2024-03-17T05:55:37;99318.38;;;6.82;65.51
62402;BME280;48440;51.224;22.506;2024-03-17T05:58:03;99323.19;;;6.80;65.61
62402;BME280;48440;51.224;22.506;2024-03-17T06:00:29;99326.72;;;6.81;65.78
62402;BME280;48440;51.224;22.506;2024-03-17T06:02:56;99329.47;;;6.93;65.98
62402;BME280;48440;51.224;22.506;2024-03-17T06:05:22;99336.50;;;6.94;65.73
62402;BME280;48440;51.224;22.506;2024-03-17T06:07:48;99324.88;;;6.93;64.98
62402;BME280;48440;51.224;22.506;2024-03-17T06:10:13;99337.47;;;6.99;65.09
62402;BME280;48440;51.224;22.506;2024-03-17T06:12:39;99337.78;;;7.03;65.14
62402;BME280;48440;51.224;22.506;2024-03-17T06:15:05;99339.84;;;7.19;65.04
62402;BME280;48440;51.224;22.506;2024-03-17T06:17:31;99346.19;;;7.25;64.28
62402;BME280;48440;51.224;22.506;2024-03-17T06:19:57;99345.84;;;7.33;64.53
62402;BME280;48440;51.224;22.506;2024-03-17T06:22:22;99342.69;;;7.36;64.23
62402;BME280;48440;51.224;22.506;2024-03-17T06:24:48;99340.94;;;7.41;64.32
62402;BME280;48440;51.224;22.506;2024-03-17T06:27:14;99346.09;;;7.43;64.18
62402;BME280;48440;51.224;22.506;2024-03-17T06:29:40;99347.88;;;7.49;64.17
62402;BME280;48440;51.224;22.506;2024-03-17T06:32:05;99357.63;;;7.50;63.54
62402;BME280;48440;51.224;22.506;2024-03-17T06:34:31;99357.63;;;7.50;63.68
62402;BME280;48440;51.224;22.506;2024-03-17T06:36:56;99350.69;;;7.54;63.92
62402;BME280;48440;51.224;22.506;2024-03-17T06:39:21;99356.44;;;7.58;63.82
62402;BME280;48440;51.224;22.506;2024-03-17T06:41:47;99351.28;;;7.68;63.96
62402;BME280;48440;51.224;22.506;2024-03-17T06:44:12;99360.03;;;8.45;62.47
62402;BME280;48440;51.224;22.506;2024-03-17T06:46:38;99358.34;;;9.12;60.09
62402;BME280;48440;51.224;22.506;2024-03-17T06:49:03;99360.00;;;9.80;58.87
62402;BME280;48440;51.224;22.506;2024-03-17T06:51:29;99357.56;;;9.79;58.94
62402;BME280;48440;51.224;22.506;2024-03-17T06:53:54;99359.38;;;9.57;58.76
62402;BME280;48440;51.224;22.506;2024-03-17T06:56:20;99369.09;;;9.07;58.96
62402;BME280;48440;51.224;22.506;2024-03-17T06:58:45;99369.38;;;8.66;60.16
62402;BME280;48440;51.224;22.506;2024-03-17T07:01:10;99367.09;;;8.46;61.04
62402;BME280;48440;51.224;22.506;2024-03-17T07:03:36;99355.00;;;8.37;61.03
62402;BME280;48440;51.224;22.506;2024-03-17T07:06:02;99370.53;;;8.06;60.44
62402;BME280;48440;51.224;22.506;2024-03-17T07:08:29;99359.75;;;7.95;61.18
62402;BME280;48440;51.224;22.506;2024-03-17T07:10:59;99356.56;;;7.86;61.35
62402;BME280;48440;51.224;22.506;2024-03-17T07:13:25;99363.63;;;7.75;62.09
62402;BME280;48440;51.224;22.506;2024-03-17T07:15:51;99365.94;;;7.60;62.78
62402;BME280;48440;51.224;22.506;2024-03-17T07:18:16;99369.34;;;7.56;62.91
62402;BME280;48440;51.224;22.506;2024-03-17T07:20:42;99376.06;;;7.53;63.03
62402;BME280;48440;51.224;22.506;2024-03-17T07:23:07;99375.69;;;7.49;63.21
62402;BME280;48440;51.224;22.506;2024-03-17T07:25:33;99375.09;;;7.59;62.50
62402;BME280;48440;51.224;22.506;2024-03-17T07:27:58;99381.69;;;7.63;62.51
62402;BME280;48440;51.224;22.506;2024-03-17T07:30:24;99373.03;;;7.73;62.67
62402;BME280;48440;51.224;22.506;2024-03-17T07:32:49;99377.97;;;7.76;62.09
62402;BME280;48440;51.224;22.506;2024-03-17T07:35:14;99386.88;;;7.88;59.90
62402;BME280;48440;51.224;22.506;2024-03-17T07:37:40;99387.13;;;7.75;57.97
62402;BME280;48440;51.224;22.506;2024-03-17T07:40:06;99372.06;;;7.67;57.52
62402;BME280;48440;51.224;22.506;2024-03-17T07:42:36;99381.09;;;7.61;58.33
62402;BME280;48440;51.224;22.506;2024-03-17T07:45:02;99381.94;;;7.62;58.43
62402;BME280;48440;51.224;22.506;2024-03-17T07:47:27;99382.03;;;7.55;56.60
62402;BME280;48440;51.224;22.506;2024-03-17T07:50:01;99381.56;;;7.58;56.38
62402;BME280;48440;51.224;22.506;2024-03-17T07:52:29;99377.13;;;7.52;56.91
62402;BME280;48440;51.224;22.506;2024-03-17T07:54:55;99375.94;;;7.48;57.15
62402;BME280;48440;51.224;22.506;2024-03-17T07:57:21;99373.59;;;7.52;57.01
62402;BME280;48440;51.224;22.506;2024-03-17T07:59:49;99374.28;;;7.47;57.54
62402;BME280;48440;51.224;22.506;2024-03-17T08:02:16;99375.56;;;7.44;57.98
62402;BME280;48440;51.224;22.506;2024-03-17T08:04:42;99379.31;;;7.43;58.10
62402;BME280;48440;51.224;22.506;2024-03-17T08:07:09;99383.91;;;7.43;58.95
62402;BME280;48440;51.224;22.506;2024-03-17T08:09:35;99387.53;;;7.37;58.79
62402;BME280;48440;51.224;22.506;2024-03-17T08:12:01;99390.81;;;7.39;59.07
62402;BME280;48440;51.224;22.506;2024-03-17T08:14:29;99382.59;;;7.34;59.29
62402;BME280;48440;51.224;22.506;2024-03-17T08:16:55;99387.03;;;7.28;59.58
62402;BME280;48440;51.224;22.506;2024-03-17T08:19:20;99381.53;;;7.35;59.45
62402;BME280;48440;51.224;22.506;2024-03-17T08:21:46;99388.25;;;7.44;59.72
62402;BME280;48440;51.224;22.506;2024-03-17T08:24:11;99380.88;;;7.51;60.38
62402;BME280;48440;51.224;22.506;2024-03-17T08:26:38;99376.66;;;7.67;59.14
62402;BME280;48440;51.224;22.506;2024-03-17T08:29:05;99378.66;;;7.83;57.82
62402;BME280;48440;51.224;22.506;2024-03-17T08:31:31;99389.56;;;7.88;55.65
62402;BME280;48440;51.224;22.506;2024-03-17T08:33:57;99379.84;;;7.75;54.28
62402;BME280;48440;51.224;22.506;2024-03-17T08:36:22;99375.59;;;7.68;54.21
62402;BME280;48440;51.224;22.506;2024-03-17T08:38:48;99372.06;;;7.67;53.63
62402;BME280;48440;51.224;22.506;2024-03-17T08:41:13;99375.69;;;7.61;53.85
62402;BME280;48440;51.224;22.506;2024-03-17T08:43:39;99372.19;;;7.61;53.80
62402;BME280;48440;51.224;22.506;2024-03-17T08:46:10;99373.59;;;7.52;54.77
62402;BME280;48440;51.224;22.506;2024-03-17T08:48:37;99372.28;;;7.54;55.44
62402;BME280;48440;51.224;22.506;2024-03-17T08:51:05;99375.94;;;7.48;56.32
62402;BME280;48440;51.224;22.506;2024-03-17T08:53:31;99374.88;;;7.49;55.95
62402;BME280;48440;51.224;22.506;2024-03-17T08:55:58;99358.44;;;7.51;56.75
62402;BME280;48440;51.224;22.506;2024-03-17T08:58:24;99369.47;;;7.49;56.09
62402;BME280;48440;51.224;22.506;2024-03-17T09:00:49;99371.94;;;7.51;55.65
62402;BME280;48440;51.224;22.506;2024-03-17T09:03:16;99375.34;;;7.46;56.71
62402;BME280;48440;51.224;22.506;2024-03-17T09:05:43;99369.94;;;7.46;57.20
62402;BME280;48440;51.224;22.506;2024-03-17T09:08:21;99379.09;;;7.45;56.46
62402;BME280;48440;51.224;22.506;2024-03-17T09:10:48;99370.03;;;7.39;56.86
62402;BME280;48440;51.224;22.506;2024-03-17T09:13:18;99374.03;;;7.37;56.74
62402;BME280;48440;51.224;22.506;2024-03-17T09:18:25;99380.47;;;7.24;57.36
62402;BME280;48440;51.224;22.506;2024-03-17T09:21:04;99388.09;;;7.27;57.36
62402;BME280;48440;51.224;22.506;2024-03-17T09:23:31;99374.84;;;7.26;58.39
62402;BME280;48440;51.224;22.506;2024-03-17T09:26:06;99383.84;;;7.20;58.50
62402;BME280;48440;51.224;22.506;2024-03-17T09:28:36;99379.88;;;7.22;58.18
62402;BME280;48440;51.224;22.506;2024-03-17T09:31:02;99364.59;;;7.28;57.74
62402;BME280;48440;51.224;22.506;2024-03-17T09:33:29;99371.72;;;7.52;57.26
62402;BME280;48440;51.224;22.506;2024-03-17T09:38:20;99370.31;;;7.96;53.42
62402;BME280;48440;51.224;22.506;2024-03-17T09:40:47;99378.03;;;8.39;52.05
62402;BME280;48440;51.224;22.506;2024-03-17T09:43:13;99365.34;;;9.42;51.08
62402;BME280;48440;51.224;22.506;2024-03-17T09:45:38;99371.88;;;9.96;51.10
62402;BME280;48440;51.224;22.506;2024-03-17T09:48:04;99369.03;;;9.69;49.88
62402;BME280;48440;51.224;22.506;2024-03-17T09:50:30;99369.78;;;9.48;49.56
62402;BME280;48440;51.224;22.506;2024-03-17T09:52:57;99371.81;;;9.24;49.65
62402;BME280;48440;51.224;22.506;2024-03-17T09:55:22;99363.75;;;9.12;49.51
62402;BME280;48440;51.224;22.506;2024-03-17T09:57:49;99370.22;;;9.11;49.53
62402;BME280;48440;51.224;22.506;2024-03-17T10:00:15;99372.69;;;9.58;49.11
62402;BME280;48440;51.224;22.506;2024-03-17T10:02:45;99370.84;;;9.64;46.98
62402;BME280;48440;51.224;22.506;2024-03-17T10:05:24;99370.84;;;9.30;48.26
62402;BME280;48440;51.224;22.506;2024-03-17T10:07:51;99375.22;;;9.03;48.31
62402;BME280;48440;51.224;22.506;2024-03-17T10:10:18;99368.63;;;8.82;49.29
62402;BME280;48440;51.224;22.506;2024-03-17T10:12:51;99366.78;;;8.71;49.71
62402;BME280;48440;51.224;22.506;2024-03-17T10:15:18;99360.06;;;8.73;49.60
62402;BME280;48440;51.224;22.506;2024-03-17T10:17:44;99370.00;;;8.84;49.63
62402;BME280;48440;51.224;22.506;2024-03-17T10:20:23;99361.75;;;8.91;49.49
62402;BME280;48440;51.224;22.506;2024-03-17T10:23:00;99358.63;;;8.82;49.61
62402;BME280;48440;51.224;22.506;2024-03-17T10:25:28;99368.38;;;8.55;49.43
62402;BME280;48440;51.224;22.506;2024-03-17T10:27:54;99376.03;;;8.35;50.02
62402;BME280;48440;51.224;22.506;2024-03-17T10:30:20;99372.63;;;8.28;50.67
62402;BME280;48440;51.224;22.506;2024-03-17T10:32:52;99374.53;;;8.15;50.43
62402;BME280;48440;51.224;22.506;2024-03-17T10:35:33;99368.56;;;8.02;48.84
62402;BME280;48440;51.224;22.506;2024-03-17T10:38:00;99374.44;;;7.99;49.90
62402;BME280;48440;51.224;22.506;2024-03-17T10:40:27;99371.72;;;7.87;50.75
62402;BME280;48440;51.224;22.506;2024-03-17T10:42:54;99373.69;;;7.80;51.86
62402;BME280;48440;51.224;22.506;2024-03-17T10:45:20;99370.44;;;7.78;52.51
62402;BME280;48440;51.224;22.506;2024-03-17T10:47:50;99365.88;;;7.78;52.46
62402;BME280;48440;51.224;22.506;2024-03-17T10:50:21;99375.34;;;7.81;52.13
62402;BME280;48440;51.224;22.506;2024-03-17T10:52:49;99365.50;;;7.87;50.93
62402;BME280;48440;51.224;22.506;2024-03-17T10:55:25;99368.88;;;7.82;52.02
62402;BME280;48440;51.224;22.506;2024-03-17T10:57:53;99372.78;;;7.86;51.92
62402;BME280;48440;51.224;22.506;2024-03-17T11:00:20;99363.38;;;7.89;51.96
62402;BME280;48440;51.224;22.506;2024-03-17T11:02:50;99368.78;;;7.89;52.04
62402;BME280;48440;51.224;22.506;2024-03-17T11:05:20;99367.50;;;7.91;51.93
62402;BME280;48440;51.224;22.506;2024-03-17T11:07:47;99368.53;;;7.90;52.02
62402;BME280;48440;51.224;22.506;2024-03-17T11:10:22;99365.13;;;7.83;51.22
62402;BME280;48440;51.224;22.506;2024-03-17T11:12:50;99356.78;;;7.84;52.08
62402;BME280;48440;51.224;22.506;2024-03-17T11:17:45;99355.28;;;7.77;52.95
62402;BME280;48440;51.224;22.506;2024-03-17T11:20:15;99362.56;;;7.76;53.08
62402;BME280;48440;51.224;22.506;2024-03-17T11:22:43;99356.78;;;7.84;53.44
62402;BME280;48440;51.224;22.506;2024-03-17T11:28:02;99354.47;;;7.76;52.36
62402;BME280;48440;51.224;22.506;2024-03-17T11:44:33;99356.00;;;7.72;52.84
62402;BME280;48440;51.224;22.506;2024-03-17T11:47:03;99351.31;;;7.79;52.20
62402;BME280;48440;51.224;22.506;2024-03-17T11:49:39;99352.81;;;7.75;52.34
62402;BME280;48440;51.224;22.506;2024-03-17T11:52:16;99355.88;;;7.67;52.82
62402;BME280;48440;51.224;22.506;2024-03-17T11:54:45;99353.63;;;7.64;51.89
62402;BME280;48440;51.224;22.506;2024-03-17T11:57:13;99357.84;;;7.60;51.99
62402;BME280;48440;51.224;22.506;2024-03-17T11:59:39;99352.91;;;7.57;52.33
62402;BME280;48440;51.224;22.506;2024-03-17T12:02:25;99361.38;;;7.49;53.47
62402;BME280;48440;51.224;22.506;2024-03-17T12:04:57;99356.81;;;7.49;53.30
62402;BME280;48440;51.224;22.506;2024-03-17T12:07:22;99354.44;;;7.41;54.16
62402;BME280;48440;51.224;22.506;2024-03-17T12:09:50;99364.91;;;7.49;54.33
62402;BME280;48440;51.224;22.506;2024-03-17T12:14:45;99356.34;;;7.53;55.79
62402;BME280;48440;51.224;22.506;2024-03-17T12:17:13;99353.88;;;7.51;55.87
62402;BME280;48440;51.224;22.506;2024-03-17T12:19:44;99359.13;;;7.46;55.93
62402;BME280;48440;51.224;22.506;2024-03-17T12:22:16;99350.44;;;7.44;56.07
62402;BME280;48440;51.224;22.506;2024-03-17T12:24:44;99345.88;;;7.44;54.91
62402;BME280;48440;51.224;22.506;2024-03-17T12:27:23;99358.31;;;7.45;54.74
62402;BME280;48440;51.224;22.506;2024-03-17T12:29:51;99345.75;;;7.39;54.84
62402;BME280;48440;51.224;22.506;2024-03-17T12:32:18;99348.22;;;7.41;54.48
62402;BME280;48440;51.224;22.506;2024-03-17T12:34:45;99348.91;;;7.36;53.96
62402;BME280;48440;51.224;22.506;2024-03-17T12:37:19;99342.44;;;7.37;54.66
62402;BME280;48440;51.224;22.506;2024-03-17T12:39:45;99332.72;;;7.36;55.24
62402;BME280;48440;51.224;22.506;2024-03-17T12:42:23;99330.50;;;7.45;54.56
62402;BME280;48440;51.224;22.506;2024-03-17T12:44:50;99324.03;;;7.46;54.94
62402;BME280;48440;51.224;22.506;2024-03-17T12:47:18;99327.78;;;7.57;54.82
62402;BME280;48440;51.224;22.506;2024-03-17T12:52:40;99325.22;;;7.73;53.82
62402;BME280;48440;51.224;22.506;2024-03-17T12:55:09;99328.16;;;7.60;53.05
62402;BME280;48440;51.224;22.506;2024-03-17T13:00:47;99321.44;;;7.63;54.09
62402;BME280;48440;51.224;22.506;2024-03-17T13:03:28;99323.91;;;7.64;53.00
62402;BME280;48440;51.224;22.506;2024-03-17T13:05:54;99317.56;;;7.59;54.27
62402;BME280;48440;51.224;22.506;2024-03-17T13:08:20;99336.47;;;7.59;54.52
62402;BME280;48440;51.224;22.506;2024-03-17T13:10:46;99333.91;;;7.64;53.70
62402;BME280;48440;51.224;22.506;2024-03-17T13:13:13;99329.78;;;7.61;53.91
62402;BME280;48440;51.224;22.506;2024-03-17T13:15:42;99322.97;;;7.59;53.93
62402;BME280;48440;51.224;22.506;2024-03-17T13:18:08;99328.38;;;7.59;54.12
62402;BME280;48440;51.224;22.506;2024-03-17T13:20:34;99323.66;;;7.54;53.44
62402;BME280;48440;51.224;22.506;2024-03-17T13:23:00;99324.03;;;7.46;54.01
62402;BME280;48440;51.224;22.506;2024-03-17T13:25:30;99322.41;;;7.45;52.99
62402;BME280;48440;51.224;22.506;2024-03-17T13:28:00;99323.31;;;7.39;53.87
62402;BME280;48440;51.224;22.506;2024-03-17T13:30:26;99324.38;;;7.38;54.48
62402;BME280;48440;51.224;22.506;2024-03-17T13:32:54;99319.44;;;7.35;54.88